createdAt,value
2018-12-26T00:00:58.305Z,100508.36
2018-12-26T00:01:59.412Z,100508.02
2018-12-26T00:03:00.522Z,100506.69
2018-12-26T00:04:01.628Z,100498.31
2018-12-26T00:05:02.942Z,100511.70
2018-12-26T00:07:18.252Z,100501.13
2018-12-26T00:08:19.366Z,100502.98
2018-12-26T00:09:20.476Z,100493.09
2018-12-26T00:10:21.584Z,100490.59
2018-12-26T00:11:22.820Z,100488.74
2018-12-26T00:12:23.933Z,100491.59
2018-12-26T00:13:25.048Z,100454.12
2018-12-26T00:14:26.160Z,100477.86
2018-12-26T00:15:27.274Z,100466.16
2018-12-26T00:16:28.393Z,100483.70
2018-12-26T00:17:29.502Z,100471.66
2018-12-26T00:18:30.715Z,100481.55
2018-12-26T00:19:31.856Z,100490.05
2018-12-26T00:20:33.029Z,100484.87
2018-12-26T00:21:34.149Z,100489.71
2018-12-26T00:22:35.351Z,100490.23
2018-12-26T00:23:36.456Z,100488.89
2018-12-26T00:24:37.568Z,100491.05
2018-12-26T00:25:38.772Z,100495.58
2018-12-26T00:26:39.902Z,100478.32
2018-12-26T00:27:41.108Z,100492.91
2018-12-26T00:28:42.212Z,100496.92
2018-12-26T00:29:43.324Z,100505.95
2018-12-26T00:30:44.437Z,100516.14
2018-12-26T00:31:45.652Z,100523.69
2018-12-26T00:32:46.856Z,100496.58
2018-12-26T00:33:47.966Z,100508.28
2018-12-26T00:34:49.077Z,100521.01
2018-12-26T00:35:50.183Z,100508.11
2018-12-26T00:38:05.520Z,100521.01
2018-12-26T00:39:06.636Z,100519.67
2018-12-26T00:40:07.750Z,100511.64
2018-12-26T00:41:08.861Z,100523.17
2018-12-26T00:43:24.281Z,100516.34
2018-12-26T00:44:25.398Z,100518.02
2018-12-26T00:45:26.616Z,100528.39
2018-12-26T00:46:27.720Z,100532.41
2018-12-26T00:48:43.037Z,100540.44
2018-12-26T00:49:44.155Z,100536.42
2018-12-26T00:50:45.268Z,100539.92
2018-12-26T00:51:46.376Z,100539.92
2018-12-26T00:54:01.793Z,100547.95
2018-12-26T00:55:38.462Z,100553.16
2018-12-26T00:56:39.683Z,100548.80
2018-12-26T00:57:40.905Z,100543.80
2018-12-26T00:58:42.028Z,100545.13
2018-12-26T00:59:43.136Z,100553.64
2018-12-26T01:00:44.247Z,100540.77
2018-12-26T01:01:45.355Z,100550.14
2018-12-26T01:02:46.563Z,100543.45
2018-12-26T01:03:47.891Z,100548.47
2018-12-26T01:04:49.095Z,100538.23
2018-12-26T01:05:50.305Z,100537.23
2018-12-26T01:06:51.413Z,100539.92
2018-12-26T01:07:52.515Z,100541.77
2018-12-26T01:08:53.736Z,100540.91
2018-12-26T01:09:54.840Z,100530.72
2018-12-26T01:10:55.965Z,100526.19
2018-12-26T01:11:57.072Z,100546.78
2018-12-26T01:12:58.181Z,100539.23
2018-12-26T01:13:59.305Z,100560.51
2018-12-26T01:15:00.426Z,100559.65
2018-12-26T01:16:01.641Z,100572.05
2018-12-26T01:17:02.776Z,100558.31
2018-12-26T01:18:03.877Z,100559.17
2018-12-26T01:19:04.998Z,100569.36
2018-12-26T01:20:06.114Z,100573.89
2018-12-26T01:21:07.215Z,100584.60
2018-12-26T01:22:08.325Z,100575.23
2018-12-26T01:23:09.432Z,100570.88
2018-12-26T01:24:10.558Z,100583.27
2018-12-26T01:25:11.669Z,100584.60
2018-12-26T01:26:19.101Z,100591.78
2018-12-26T01:27:16.080Z,100588.11
2018-12-26T01:28:17.202Z,100585.94
2018-12-26T01:29:18.328Z,100607.70
2018-12-26T01:30:19.440Z,100599.33
2018-12-26T01:31:20.548Z,100601.48
2018-12-26T01:32:21.658Z,100596.13
2018-12-26T01:33:22.762Z,100586.42
2018-12-26T01:35:38.180Z,100597.98
2018-12-26T01:36:39.293Z,100606.02
2018-12-26T01:37:40.504Z,100614.73
2018-12-26T01:38:41.612Z,100612.88
2018-12-26T01:40:57.037Z,100604.20
2018-12-26T01:41:58.250Z,100607.42
2018-12-26T01:42:59.362Z,100608.11
2018-12-26T01:44:00.572Z,100604.95
2018-12-26T01:45:01.796Z,100607.80
2018-12-26T01:46:03.003Z,100608.31
2018-12-26T01:47:04.119Z,100608.66
2018-12-26T01:48:05.232Z,100606.80
2018-12-26T01:49:06.339Z,100613.84
2018-12-26T01:51:21.647Z,100607.01
2018-12-26T01:52:22.752Z,100615.73
2018-12-26T01:53:23.865Z,100603.16
2018-12-26T01:54:24.983Z,100620.56
2018-12-26T01:55:26.207Z,100608.52
2018-12-26T01:56:28.148Z,100622.77
2018-12-26T01:57:30.367Z,100619.57
2018-12-26T01:58:32.038Z,100615.55
2018-12-26T01:59:33.148Z,100618.92
2018-12-26T02:00:34.362Z,100626.27
2018-12-26T02:01:35.472Z,100622.77
2018-12-26T02:02:36.579Z,100617.41
2018-12-26T02:03:37.707Z,100612.05
2018-12-26T02:04:38.829Z,100635.30
2018-12-26T02:06:54.239Z,100628.94
2018-12-26T02:07:55.467Z,100649.20
2018-12-26T02:08:56.680Z,100630.80
2018-12-26T02:09:57.788Z,100630.45
2018-12-26T02:10:58.945Z,100635.47
2018-12-26T02:12:00.156Z,100630.94
2018-12-26T02:13:01.268Z,100630.11
2018-12-26T02:14:02.380Z,100651.02
2018-12-26T02:15:25.152Z,100638.62
2018-12-26T02:16:26.373Z,100645.49
2018-12-26T02:17:27.478Z,100654.69
2018-12-26T02:18:28.590Z,100628.43
2018-12-26T02:19:29.705Z,100649.84
2018-12-26T02:20:30.914Z,100644.63
2018-12-26T02:21:32.037Z,100634.92
2018-12-26T02:22:33.309Z,100655.34
2018-12-26T02:23:34.456Z,100660.36
2018-12-26T02:24:35.563Z,100667.05
2018-12-26T02:25:36.778Z,100665.37
2018-12-26T02:26:38.001Z,100650.64
2018-12-26T02:27:39.112Z,100659.67
2018-12-26T02:28:40.221Z,100658.84
2018-12-26T02:29:41.488Z,100661.86
2018-12-26T02:30:42.596Z,100665.02
2018-12-26T02:31:43.817Z,100666.36
2018-12-26T02:32:44.930Z,100667.70
2018-12-26T02:33:46.141Z,100672.23
2018-12-26T02:34:47.248Z,100672.37
2018-12-26T02:35:48.357Z,100670.89
2018-12-26T02:36:49.581Z,100677.59
2018-12-26T02:37:50.689Z,100658.02
2018-12-26T02:38:51.913Z,100682.59
2018-12-26T02:39:53.023Z,100682.94
2018-12-26T02:40:54.133Z,100679.06
2018-12-26T02:41:55.354Z,100689.64
2018-12-26T02:42:56.485Z,100690.12
2018-12-26T02:43:57.589Z,100683.42
2018-12-26T02:44:58.697Z,100677.08
2018-12-26T02:45:59.812Z,100686.10
2018-12-26T02:48:15.126Z,100701.34
2018-12-26T02:49:16.235Z,100711.88
2018-12-26T02:50:17.341Z,100704.36
2018-12-26T02:51:18.556Z,100704.84
2018-12-26T02:52:19.958Z,100710.20
2018-12-26T02:53:21.045Z,100704.02
2018-12-26T02:54:22.154Z,100711.67
2018-12-26T02:55:23.265Z,100705.84
2018-12-26T02:56:24.469Z,100710.50
2018-12-26T02:57:25.606Z,100714.22
2018-12-26T02:58:27.006Z,100714.86
2018-12-26T02:59:28.116Z,100713.87
2018-12-26T03:00:29.785Z,100710.33
2018-12-26T03:01:30.895Z,100716.20
2018-12-26T03:03:46.218Z,100722.89
2018-12-26T03:04:47.338Z,100732.27
2018-12-26T03:05:48.456Z,100726.91
2018-12-26T03:06:49.562Z,100728.25
2018-12-26T03:07:50.781Z,100737.63
2018-12-26T03:08:51.895Z,100747.47
2018-12-26T03:09:53.008Z,100735.94
2018-12-26T03:10:54.114Z,100747.81
2018-12-26T03:11:55.234Z,100738.61
2018-12-26T03:12:56.633Z,100749.67
2018-12-26T03:13:57.743Z,100748.67
2018-12-26T03:14:58.854Z,100747.81
2018-12-26T03:15:59.966Z,100750.16
2018-12-26T03:17:01.174Z,100756.84
2018-12-26T03:19:16.493Z,100762.55
2018-12-26T03:20:17.613Z,100770.58
2018-12-26T03:21:18.724Z,100775.45
2018-12-26T03:22:19.848Z,100771.44
2018-12-26T03:23:20.968Z,100774.97
2018-12-26T03:24:22.079Z,100769.61
2018-12-26T03:25:23.197Z,100774.97
2018-12-26T03:26:24.306Z,100778.12
2018-12-26T03:27:25.416Z,100782.14
2018-12-26T03:29:40.925Z,100774.45
2018-12-26T03:30:42.073Z,100777.14
2018-12-26T03:31:43.344Z,100772.64
2018-12-26T03:32:44.446Z,100777.48
2018-12-26T03:33:45.841Z,100772.64
2018-12-26T03:34:47.051Z,100770.09
2018-12-26T03:35:48.162Z,100771.78
2018-12-26T03:36:49.263Z,100782.49
2018-12-26T03:37:50.474Z,100778.48
2018-12-26T03:38:51.724Z,100780.67
2018-12-26T03:39:52.838Z,100784.69
2018-12-26T03:40:53.944Z,100786.51
2018-12-26T03:41:55.151Z,100783.19
2018-12-26T03:42:56.360Z,100773.47
2018-12-26T03:43:57.580Z,100785.86
2018-12-26T03:45:34.106Z,100781.84
2018-12-26T03:46:47.773Z,100784.52
2018-12-26T03:48:24.344Z,100779.52
2018-12-26T03:49:25.476Z,100790.91
2018-12-26T03:50:26.687Z,100776.19
2018-12-26T03:51:27.798Z,100787.41
2018-12-26T03:52:28.908Z,100785.21
2018-12-26T03:53:30.016Z,100790.56
2018-12-26T03:55:45.340Z,100800.94
2018-12-26T03:56:46.565Z,100802.27
2018-12-26T03:57:47.680Z,100810.30
2018-12-26T04:00:31.251Z,100816.17
2018-12-26T04:01:32.366Z,100808.48
2018-12-26T04:02:33.650Z,100815.53
2018-12-26T04:03:34.753Z,100813.67
2018-12-26T04:04:35.963Z,100815.19
2018-12-26T04:06:51.287Z,100823.56
2018-12-26T04:07:52.391Z,100830.09
2018-12-26T04:08:53.502Z,100831.94
2018-12-26T04:12:11.681Z,100820.23
2018-12-26T04:13:12.901Z,100827.76
2018-12-26T04:14:14.129Z,100824.78
2018-12-26T04:15:15.342Z,100826.12
2018-12-26T04:17:30.865Z,100829.79
2018-12-26T04:18:31.988Z,100826.12
2018-12-26T04:21:15.461Z,100825.30
2018-12-26T04:22:16.678Z,100822.45
2018-12-26T04:23:17.783Z,100818.42
2018-12-26T04:24:18.910Z,100832.68
2018-12-26T04:25:20.016Z,100828.15
2018-12-26T04:26:21.121Z,100834.02
2018-12-26T04:27:22.254Z,100827.32
2018-12-26T04:28:23.364Z,100833.67
2018-12-26T04:29:24.470Z,100831.82
2018-12-26T04:30:25.636Z,100839.03
2018-12-26T04:31:26.685Z,100830.48
2018-12-26T04:32:27.809Z,100844.39
2018-12-26T04:33:29.516Z,100847.55
2018-12-26T04:34:30.613Z,100842.70
2018-12-26T04:35:31.716Z,100857.27
2018-12-26T04:36:32.829Z,100849.73
2018-12-26T04:38:48.349Z,100852.08
2018-12-26T04:39:49.469Z,100848.53
2018-12-26T04:40:50.578Z,100858.77
2018-12-26T04:41:51.690Z,100858.90
2018-12-26T04:42:52.816Z,100861.58
2018-12-26T04:43:53.925Z,100862.92
2018-12-26T04:44:55.033Z,100860.41
2018-12-26T04:45:56.246Z,100863.91
2018-12-26T04:46:57.355Z,100864.42
2018-12-26T04:47:58.469Z,100867.92
2018-12-26T04:48:59.576Z,100864.77
2018-12-26T04:50:00.791Z,100855.53
2018-12-26T04:51:01.908Z,100868.92
2018-12-26T04:52:03.014Z,100874.78
2018-12-26T04:54:18.325Z,100876.95
2018-12-26T04:55:19.449Z,100881.96
2018-12-26T04:56:20.569Z,100883.65
2018-12-26T04:57:24.972Z,100887.19
2018-12-26T04:58:24.720Z,100885.50
2018-12-26T04:59:25.831Z,100888.17
2018-12-26T05:00:27.041Z,100897.89
2018-12-26T05:01:28.249Z,100895.35
2018-12-26T05:02:29.356Z,100898.03
2018-12-26T05:03:30.581Z,100905.58
2018-12-26T05:04:32.148Z,100906.06
2018-12-26T05:05:33.248Z,100908.73
2018-12-26T05:06:34.353Z,100918.97
2018-12-26T05:07:35.573Z,100910.42
2018-12-26T05:08:36.710Z,100913.11
2018-12-26T05:09:37.823Z,100915.30
2018-12-26T05:10:38.930Z,100908.09
2018-12-26T05:11:40.064Z,100922.48
2018-12-26T05:12:41.176Z,100921.48
2018-12-26T05:13:42.307Z,100922.18
2018-12-26T05:14:43.410Z,100925.02
2018-12-26T05:15:44.613Z,100924.52
2018-12-26T05:16:45.720Z,100920.50
2018-12-26T05:17:46.830Z,100924.52
2018-12-26T05:18:48.050Z,100926.20
2018-12-26T05:19:49.163Z,100922.18
2018-12-26T05:20:50.272Z,100928.74
2018-12-26T05:21:51.480Z,100926.06
2018-12-26T05:22:52.647Z,100929.57
2018-12-26T05:23:53.709Z,100938.47
2018-12-26T05:25:29.682Z,100944.30
2018-12-26T05:26:30.811Z,100923.73
2018-12-26T05:27:34.253Z,100935.27
2018-12-26T05:28:34.965Z,100937.95
2018-12-26T05:30:50.280Z,100950.00
2018-12-26T05:31:51.392Z,100945.52
2018-12-26T05:32:52.499Z,100949.88
2018-12-26T05:33:53.616Z,100945.98
2018-12-26T05:34:55.025Z,100943.82
2018-12-26T05:35:56.240Z,100944.30
2018-12-26T05:36:57.356Z,100944.66
2018-12-26T05:37:58.473Z,100947.67
2018-12-26T05:38:59.576Z,100929.28
2018-12-26T05:40:00.704Z,100950.17
2018-12-26T05:41:01.814Z,100954.53
2018-12-26T05:42:02.927Z,100949.18
2018-12-26T05:43:04.035Z,100953.67
2018-12-26T05:44:05.140Z,100946.98
2018-12-26T05:45:06.265Z,100951.98
2018-12-26T05:46:07.374Z,100957.34
2018-12-26T05:47:08.483Z,100946.80
2018-12-26T05:48:09.586Z,100948.96
2018-12-26T05:49:10.696Z,100952.50
2018-12-26T05:50:11.822Z,100947.62
2018-12-26T05:51:12.935Z,100958.33
2018-12-26T05:52:14.153Z,100962.86
2018-12-26T05:53:15.263Z,100955.66
2018-12-26T05:54:16.482Z,100957.16
2018-12-26T05:56:31.785Z,100971.38
2018-12-26T05:57:32.897Z,100972.23
2018-12-26T05:58:34.004Z,100975.05
2018-12-26T05:59:35.113Z,100977.25
2018-12-26T06:00:36.459Z,100983.59
2018-12-26T06:01:37.564Z,100992.45
2018-12-26T06:02:38.779Z,100979.06
2018-12-26T06:03:39.893Z,100988.95
2018-12-26T06:04:41.003Z,100981.91
2018-12-26T06:05:42.642Z,100967.67
2018-12-26T06:06:43.753Z,100988.95
2018-12-26T06:07:44.863Z,100983.24
2018-12-26T06:08:45.972Z,100981.39
2018-12-26T06:09:47.083Z,100983.72
2018-12-26T06:10:48.300Z,100981.05
2018-12-26T06:11:49.419Z,100984.58
2018-12-26T06:12:50.633Z,100990.28
2018-12-26T06:13:51.853Z,100995.77
2018-12-26T06:14:53.069Z,100989.43
2018-12-26T06:17:08.370Z,100991.62
2018-12-26T06:18:09.486Z,100999.15
2018-12-26T06:19:10.693Z,100996.81
2018-12-26T06:20:11.807Z,100997.68
2018-12-26T06:21:13.134Z,100992.80
2018-12-26T06:22:14.243Z,100991.47
2018-12-26T06:23:15.362Z,100993.66
2018-12-26T06:24:16.467Z,100993.15
2018-12-26T06:25:17.682Z,100989.99
2018-12-26T06:27:32.993Z,100997.04
2018-12-26T06:28:34.132Z,101004.56
2018-12-26T06:29:35.240Z,101007.23
2018-12-26T06:30:36.396Z,101011.61
2018-12-26T06:32:51.712Z,101005.77
2018-12-26T06:33:52.838Z,101007.11
2018-12-26T06:34:54.045Z,101007.94
2018-12-26T06:35:55.157Z,101003.44
2018-12-26T06:36:56.760Z,101012.30
2018-12-26T06:37:57.867Z,101013.16
2018-12-26T06:38:58.969Z,101006.95
2018-12-26T06:40:00.092Z,101012.66
2018-12-26T06:41:01.295Z,101018.02
2018-12-26T06:43:16.609Z,101018.52
2018-12-26T06:44:17.741Z,101021.39
2018-12-26T06:45:18.848Z,101025.56
2018-12-26T06:46:19.959Z,101020.20
2018-12-26T06:47:21.080Z,101031.75
2018-12-26T06:48:22.189Z,101032.74
2018-12-26T06:49:23.299Z,101030.77
2018-12-26T06:50:24.405Z,101026.05
2018-12-26T06:51:25.523Z,101030.41
2018-12-26T06:52:26.641Z,101035.77
2018-12-26T06:53:27.753Z,101039.78
2018-12-26T06:54:28.860Z,101035.29
2018-12-26T06:55:29.976Z,101042.47
2018-12-26T06:56:31.086Z,101038.80
2018-12-26T06:57:32.210Z,101047.34
2018-12-26T06:58:33.316Z,101045.02
2018-12-26T06:59:34.423Z,101041.47
2018-12-26T07:00:35.529Z,101041.00
2018-12-26T07:01:36.741Z,101041.47
2018-12-26T07:02:37.982Z,101040.14
2018-12-26T07:03:39.099Z,101042.47
2018-12-26T07:04:40.200Z,101053.05
2018-12-26T07:05:41.312Z,101053.53
2018-12-26T07:06:42.420Z,101049.52
2018-12-26T07:07:43.829Z,101043.33
2018-12-26T07:08:44.924Z,101043.67
2018-12-26T07:09:46.132Z,101042.47
2018-12-26T07:10:47.346Z,101047.70
2018-12-26T07:11:48.460Z,101042.47
2018-12-26T07:12:49.659Z,101040.30
2018-12-26T07:13:50.771Z,101045.66
2018-12-26T07:14:51.876Z,101045.30
2018-12-26T07:15:53.087Z,101040.78
2018-12-26T07:16:54.192Z,101049.33
2018-12-26T07:17:55.415Z,101042.98
2018-12-26T07:18:56.519Z,101043.45
2018-12-26T07:19:57.734Z,101048.69
2018-12-26T07:20:58.844Z,101044.16
2018-12-26T07:21:59.950Z,101044.16
2018-12-26T07:24:15.369Z,101047.05
2018-12-26T07:25:16.484Z,101048.27
2018-12-26T07:26:17.597Z,101049.31
2018-12-26T07:27:18.709Z,101050.65
2018-12-26T07:28:20.104Z,101054.67
2018-12-26T07:29:21.213Z,101045.12
2018-12-26T07:30:22.431Z,101046.81
2018-12-26T07:31:23.532Z,101042.32
2018-12-26T07:32:24.643Z,101045.83
2018-12-26T07:34:42.345Z,101052.88
2018-12-26T07:35:42.985Z,101045.70
2018-12-26T07:36:44.113Z,101054.08
2018-12-26T07:37:45.217Z,101051.41
2018-12-26T07:38:46.934Z,101057.59
2018-12-26T07:39:48.036Z,101058.10
2018-12-26T07:40:49.144Z,101054.43
2018-12-26T07:41:50.257Z,101055.77
2018-12-26T07:42:51.465Z,101064.29
2018-12-26T07:45:48.185Z,101071.20
2018-12-26T07:46:49.307Z,101070.34
2018-12-26T07:47:50.420Z,101074.71
2018-12-26T07:48:51.530Z,101076.91
2018-12-26T07:49:52.656Z,101076.56
2018-12-26T07:50:53.766Z,101073.02
2018-12-26T07:51:54.880Z,101078.38
2018-12-26T07:52:55.987Z,101078.55
2018-12-26T07:53:57.093Z,101079.38
2018-12-26T07:54:58.241Z,101079.89
2018-12-26T07:55:59.354Z,101076.69
2018-12-26T07:57:00.461Z,101076.85
2018-12-26T07:58:01.570Z,101073.66
2018-12-26T07:59:02.682Z,101073.31
2018-12-26T08:00:45.260Z,101074.17
2018-12-26T08:01:46.399Z,101071.50
2018-12-26T08:02:47.504Z,101066.48
2018-12-26T08:03:48.617Z,101069.16
2018-12-26T08:04:49.727Z,101067.48
2018-12-26T08:05:50.852Z,101064.80
2018-12-26T08:06:51.960Z,101067.61
2018-12-26T08:07:53.071Z,101060.43
2018-12-26T08:08:54.178Z,101058.23
2018-12-26T08:09:55.693Z,101058.23
2018-12-26T08:10:56.809Z,101068.13
2018-12-26T08:11:58.028Z,101072.97
2018-12-26T08:12:59.235Z,101059.22
2018-12-26T08:14:00.445Z,101063.23
2018-12-26T08:15:10.175Z,101059.73
2018-12-26T08:16:04.708Z,101070.45
2018-12-26T08:17:05.827Z,101074.81
2018-12-26T08:18:07.044Z,101074.95
2018-12-26T08:19:08.162Z,101067.42
2018-12-26T08:20:09.270Z,101056.02
2018-12-26T08:21:10.501Z,101082.63
2018-12-26T08:22:11.615Z,101077.44
2018-12-26T08:23:12.720Z,101080.95
2018-12-26T08:24:13.831Z,101077.44
2018-12-26T08:25:14.941Z,101073.90
2018-12-26T08:26:16.169Z,101074.25
2018-12-26T08:27:17.379Z,101079.26
2018-12-26T08:28:26.295Z,101076.58
2018-12-26T08:29:21.513Z,101079.26
2018-12-26T08:30:22.653Z,101075.11
2018-12-26T08:31:23.972Z,101080.95
2018-12-26T08:32:25.084Z,101080.11
2018-12-26T08:33:26.193Z,101079.60
2018-12-26T08:34:27.304Z,101079.60
2018-12-26T08:35:28.416Z,101087.99
2018-12-26T08:36:29.541Z,101084.13
2018-12-26T08:37:30.651Z,101079.95
2018-12-26T08:38:31.759Z,101074.95
2018-12-26T08:39:32.984Z,101087.52
2018-12-26T08:40:34.098Z,101085.66
2018-12-26T08:41:35.316Z,101082.50
2018-12-26T08:42:36.432Z,101084.67
2018-12-26T08:43:37.637Z,101085.66
2018-12-26T08:44:38.845Z,101090.89
2018-12-26T08:45:39.958Z,101093.41
2018-12-26T08:47:55.374Z,101085.02
2018-12-26T08:48:56.485Z,101093.41
2018-12-26T08:49:57.702Z,101088.40
2018-12-26T08:50:58.846Z,101089.73
2018-12-26T08:52:00.072Z,101094.11
2018-12-26T08:53:01.191Z,101090.60
2018-12-26T08:54:02.404Z,101095.95
2018-12-26T08:55:03.716Z,101095.95
2018-12-26T08:56:04.821Z,101105.34
2018-12-26T08:57:05.941Z,101101.31
2018-12-26T08:58:07.052Z,101101.31
2018-12-26T08:59:08.266Z,101101.67
2018-12-26T09:00:09.377Z,101102.66
2018-12-26T09:01:10.490Z,101100.80
2018-12-26T09:03:25.896Z,101105.17
2018-12-26T09:04:27.020Z,101113.72
2018-12-26T09:05:28.233Z,101115.06
2018-12-26T09:06:29.341Z,101107.50
2018-12-26T09:07:30.582Z,101110.18
2018-12-26T09:08:31.696Z,101115.41
2018-12-26T09:09:32.809Z,101113.21
2018-12-26T09:10:33.938Z,101117.23
2018-12-26T09:11:35.045Z,101117.23
2018-12-26T09:13:50.380Z,101113.38
2018-12-26T09:14:51.500Z,101116.41
2018-12-26T09:15:52.713Z,101120.77
2018-12-26T09:16:53.831Z,101120.07
2018-12-26T09:17:55.053Z,101124.44
2018-12-26T09:18:56.160Z,101123.10
2018-12-26T09:19:57.263Z,101120.91
2018-12-26T09:20:58.380Z,101119.91
2018-12-26T09:21:59.624Z,101126.61
2018-12-26T09:24:14.955Z,101113.72
2018-12-26T09:25:16.080Z,101122.11
2018-12-26T09:26:17.297Z,101114.91
2018-12-26T09:27:18.525Z,101120.77
2018-12-26T09:28:19.659Z,101116.75
2018-12-26T09:29:20.779Z,101107.02
2018-12-26T09:30:22.003Z,101115.41
2018-12-26T09:31:23.239Z,101115.06
2018-12-26T09:32:24.464Z,101118.57
2018-12-26T09:33:25.696Z,101113.38
2018-12-26T09:34:26.923Z,101110.53
2018-12-26T09:35:28.038Z,101111.52
2018-12-26T09:36:29.162Z,101116.88
2018-12-26T09:37:30.285Z,101114.20
2018-12-26T09:39:45.820Z,101116.88
2018-12-26T09:40:47.082Z,101115.06
2018-12-26T09:41:48.204Z,101111.05
2018-12-26T09:42:49.441Z,101112.03
2018-12-26T09:43:50.715Z,101110.18
2018-12-26T09:44:54.579Z,101111.17
2018-12-26T09:45:54.986Z,101104.00
2018-12-26T09:46:56.121Z,101108.84
2018-12-26T09:47:57.234Z,101100.80
2018-12-26T09:48:58.354Z,101101.67
2018-12-26T09:49:59.467Z,101107.38
2018-12-26T09:51:00.576Z,101103.36
2018-12-26T09:52:01.698Z,101099.17
2018-12-26T09:53:02.898Z,101104.05
2018-12-26T09:54:04.026Z,101097.70
2018-12-26T09:55:05.133Z,101095.72
2018-12-26T09:56:06.240Z,101098.24
2018-12-26T09:57:07.349Z,101104.47
2018-12-26T09:58:08.465Z,101105.64
2018-12-26T09:59:09.856Z,101104.30
2018-12-26T10:00:11.064Z,101106.85
2018-12-26T10:01:12.174Z,101103.34
2018-12-26T10:02:13.278Z,101102.83
2018-12-26T10:03:14.391Z,101107.20
2018-12-26T10:04:15.644Z,101096.13
2018-12-26T10:05:16.756Z,101105.86
2018-12-26T10:06:17.976Z,101103.19
2018-12-26T10:07:19.184Z,101105.38
2018-12-26T10:08:20.405Z,101109.88
2018-12-26T10:09:21.616Z,101104.87
2018-12-26T10:10:22.726Z,101107.55
2018-12-26T10:11:23.843Z,101104.73
2018-12-26T10:12:24.962Z,101103.05
2018-12-26T10:13:26.069Z,101095.49
2018-12-26T10:14:27.491Z,101094.16
2018-12-26T10:15:28.595Z,101096.83
2018-12-26T10:16:29.702Z,101096.83
2018-12-26T10:17:30.909Z,101099.16
2018-12-26T10:18:32.091Z,101075.23
2018-12-26T10:19:33.362Z,101087.97
2018-12-26T10:20:34.588Z,101095.14
2018-12-26T10:21:35.702Z,101095.49
2018-12-26T10:22:36.825Z,101097.82
2018-12-26T10:23:37.943Z,101092.11
2018-12-26T10:24:39.273Z,101093.45
2018-12-26T10:25:40.384Z,101095.66
2018-12-26T10:26:41.593Z,101093.97
2018-12-26T10:27:42.699Z,101090.77
2018-12-26T10:28:43.910Z,101088.73
2018-12-26T10:29:45.035Z,101089.09
2018-12-26T10:30:46.249Z,101092.62
2018-12-26T10:31:47.461Z,101096.27
2018-12-26T10:32:48.586Z,101088.73
2018-12-26T10:33:49.797Z,101096.27
2018-12-26T10:34:50.921Z,101096.77
2018-12-26T10:35:52.030Z,101098.11
2018-12-26T10:36:53.142Z,101099.10
2018-12-26T10:37:54.356Z,101104.81
2018-12-26T10:38:55.565Z,101103.12
2018-12-26T10:39:56.691Z,101099.10
2018-12-26T10:40:57.800Z,101098.59
2018-12-26T10:41:58.918Z,101090.72
2018-12-26T10:43:00.021Z,101092.41
2018-12-26T10:44:01.237Z,101096.91
2018-12-26T10:45:02.978Z,101098.59
2018-12-26T10:46:04.203Z,101091.06
2018-12-26T10:47:05.312Z,101091.06
2018-12-26T10:48:06.533Z,101093.75
2018-12-26T10:49:07.643Z,101099.45
2018-12-26T10:51:23.057Z,101098.11
2018-12-26T10:52:24.173Z,101098.46
2018-12-26T10:53:25.280Z,101097.47
2018-12-26T10:54:26.494Z,101089.95
2018-12-26T10:56:41.809Z,101096.27
2018-12-26T10:57:42.929Z,101091.28
2018-12-26T10:58:44.040Z,101092.47
2018-12-26T10:59:45.153Z,101093.32
2018-12-26T11:00:46.548Z,101089.84
2018-12-26T11:01:47.660Z,101084.34
2018-12-26T11:02:48.768Z,101092.23
2018-12-26T11:03:49.882Z,101086.22
2018-12-26T11:04:50.993Z,101089.25
2018-12-26T11:05:52.233Z,101086.92
2018-12-26T11:06:53.437Z,101090.30
2018-12-26T11:07:54.580Z,101081.43
2018-12-26T11:08:55.761Z,101080.92
2018-12-26T11:09:56.877Z,101076.25
2018-12-26T11:10:57.998Z,101081.48
2018-12-26T11:11:59.134Z,101073.28
2018-12-26T11:13:00.246Z,101073.53
2018-12-26T11:14:01.354Z,101066.39
2018-12-26T11:15:37.164Z,101063.77
2018-12-26T11:16:38.412Z,101060.63
2018-12-26T11:17:39.531Z,101057.20
2018-12-26T11:18:40.945Z,101052.11
2018-12-26T11:21:24.524Z,101055.02
2018-12-26T11:23:46.562Z,101046.23
2018-12-26T11:24:47.669Z,101043.76
2018-12-26T11:25:48.901Z,101042.25
2018-12-26T11:26:50.415Z,101045.80
2018-12-26T11:27:52.932Z,101044.94
2018-12-26T11:28:54.681Z,101047.13
2018-12-26T11:29:55.793Z,101049.30
2018-12-26T11:30:56.906Z,101059.03
2018-12-26T11:31:58.031Z,101060.37
2018-12-26T11:33:01.276Z,101059.55
2018-12-26T11:34:02.296Z,101067.73
2018-12-26T11:35:25.102Z,101062.37
2018-12-26T11:36:26.229Z,101066.91
2018-12-26T11:37:27.489Z,101064.70
2018-12-26T11:38:28.613Z,101067.39
2018-12-26T11:39:29.830Z,101066.21
2018-12-26T11:40:31.064Z,101069.89
2018-12-26T11:41:32.290Z,101076.22
2018-12-26T11:42:33.824Z,101068.81
2018-12-26T11:43:35.046Z,101076.86
2018-12-26T11:44:56.022Z,101074.00
2018-12-26T11:45:57.280Z,101070.46
2018-12-26T11:46:58.499Z,101076.81
2018-12-26T11:47:59.739Z,101073.79
2018-12-26T11:49:01.326Z,101079.67
2018-12-26T11:50:24.394Z,101068.24
2018-12-26T11:51:25.518Z,101080.80
2018-12-26T11:52:26.631Z,101074.95
2018-12-26T11:53:27.865Z,101075.94
2018-12-26T11:54:28.981Z,101073.39
2018-12-26T11:55:30.093Z,101068.67
2018-12-26T11:56:31.205Z,101070.37
2018-12-26T11:57:32.310Z,101061.15
2018-12-26T11:58:33.533Z,101066.51
2018-12-26T11:59:34.746Z,101066.98
2018-12-26T12:00:35.848Z,101066.64
2018-12-26T12:01:36.957Z,101064.95
2018-12-26T12:02:38.067Z,101072.52
2018-12-26T12:04:59.383Z,101072.66
2018-12-26T12:06:00.629Z,101073.52
2018-12-26T12:07:01.850Z,101077.02
2018-12-26T12:08:02.969Z,101067.80
2018-12-26T12:09:25.661Z,101070.48
2018-12-26T12:10:26.900Z,101070.48
2018-12-26T12:11:28.130Z,101075.33
2018-12-26T12:12:29.357Z,101079.02
2018-12-26T12:13:30.589Z,101074.16
2018-12-26T12:14:31.819Z,101081.34
2018-12-26T12:15:33.054Z,101077.83
2018-12-26T12:16:34.279Z,101081.86
2018-12-26T12:17:35.493Z,101080.14
2018-12-26T12:18:36.807Z,101073.08
2018-12-26T12:19:38.053Z,101073.59
2018-12-26T12:20:39.297Z,101078.95
2018-12-26T12:21:40.516Z,101074.08
2018-12-26T12:22:41.748Z,101077.56
2018-12-26T12:23:42.977Z,101085.31
2018-12-26T12:24:44.216Z,101080.44
2018-12-26T12:25:45.536Z,101086.31
2018-12-26T12:26:46.765Z,101081.94
2018-12-26T12:28:07.738Z,101084.62
2018-12-26T12:29:08.955Z,101084.27
2018-12-26T12:30:10.182Z,101085.09
2018-12-26T12:31:11.293Z,101091.80
2018-12-26T12:32:12.588Z,101092.80
2018-12-26T12:33:13.699Z,101097.81
2018-12-26T12:34:14.809Z,101088.59
2018-12-26T12:36:30.323Z,101104.16
2018-12-26T12:37:31.428Z,101083.39
2018-12-26T12:39:07.120Z,101104.16